KSCH/SCH METAR and TAF weather

Enter ICAO airport designator
Station Type Date Time Source
KSCH METAR 2021/10/24 22:55 UTC NOAA

KSCH 242255Z 00000KT 10SM OVC075 11/04 A3013


Station Type Date Time Source
KSCH Decoded METAR 2021/10/24 22:55 UTC NOAA

Schenectady Airport, NY, United States (KSCH) 42-51N 073-56W
Oct 24, 2021 - 06:55 PM EDT / 2021.10.24 2255 UTC
Wind: Calm:0
Visibility: 10 mile(s):0
Sky conditions: overcast
Temperature: 51 F (11 C)
Dew Point: 39 F (4 C)
Relative Humidity: 61%
Pressure (altimeter): 30.13 in. Hg (1020 hPa)
ob: KSCH 242255Z 00000KT 10SM OVC075 11/04 A3013
cycle: 23

Station Type Date Time Source
KSCH TAF UTC NOAA

Error!

Example: see airport list